createdAt,value
2018-08-16T00:00:57.998Z,18.94
2018-08-16T00:01:57.961Z,18.91
2018-08-16T00:02:57.966Z,18.88
2018-08-16T00:03:58.058Z,18.84
2018-08-16T00:04:57.975Z,18.94
2018-08-16T00:05:57.965Z,18.91
2018-08-16T00:06:57.976Z,18.88
2018-08-16T00:07:57.967Z,18.84
2018-08-16T00:08:57.979Z,18.85
2018-08-16T00:09:57.988Z,18.81
2018-08-16T00:10:57.983Z,18.82
2018-08-16T00:11:57.993Z,18.81
2018-08-16T00:12:57.977Z,18.81
2018-08-16T00:13:58.010Z,18.78
2018-08-16T00:14:57.995Z,18.75
2018-08-16T00:15:58.008Z,18.76
2018-08-16T00:16:57.989Z,18.69
2018-08-16T00:17:57.985Z,18.75
2018-08-16T00:18:58.011Z,18.67
2018-08-16T00:19:57.999Z,18.66
2018-08-16T00:20:58.001Z,18.66
2018-08-16T00:21:58.102Z,18.69
2018-08-16T00:22:58.002Z,18.69
2018-08-16T00:23:58.018Z,18.73
2018-08-16T00:24:58.021Z,18.62
2018-08-16T00:25:58.014Z,18.67
2018-08-16T00:26:58.028Z,18.66
2018-08-16T00:27:58.027Z,18.62
2018-08-16T00:28:58.023Z,18.65
2018-08-16T00:29:58.035Z,18.58
2018-08-16T00:30:58.035Z,18.60
2018-08-16T00:31:58.032Z,18.57
2018-08-16T00:32:58.030Z,18.57
2018-08-16T00:33:58.035Z,18.52
2018-08-16T00:34:58.048Z,18.52
2018-08-16T00:35:58.043Z,18.52
2018-08-16T00:36:58.051Z,18.57
2018-08-16T00:37:58.047Z,18.60
2018-08-16T00:38:58.049Z,18.55
2018-08-16T00:39:58.077Z,18.51
2018-08-16T00:40:58.065Z,18.45
2018-08-16T00:41:58.064Z,18.48
2018-08-16T00:42:58.096Z,18.50
2018-08-16T00:43:58.620Z,18.48
2018-08-16T00:44:58.622Z,18.52
2018-08-16T00:45:59.696Z,18.52
2018-08-16T00:46:58.067Z,18.57
2018-08-16T00:47:58.078Z,18.47
2018-08-16T00:48:58.083Z,18.44
2018-08-16T00:49:58.085Z,18.42
2018-08-16T00:50:58.074Z,18.48
2018-08-16T00:51:58.084Z,18.47
2018-08-16T00:52:58.079Z,18.44
2018-08-16T00:53:58.088Z,18.39
2018-08-16T00:54:58.092Z,18.37
2018-08-16T00:55:58.106Z,18.33
2018-08-16T00:56:58.112Z,18.32
2018-08-16T00:57:58.164Z,18.32
2018-08-16T00:58:58.103Z,18.32
2018-08-16T00:59:58.126Z,18.26
2018-08-16T01:00:58.105Z,18.20
2018-08-16T01:01:58.112Z,18.17
2018-08-16T01:02:58.125Z,18.27
2018-08-16T01:03:58.138Z,18.25
2018-08-16T01:04:58.154Z,18.23
2018-08-16T01:05:58.119Z,18.25
2018-08-16T01:06:58.136Z,18.21
2018-08-16T01:07:58.130Z,18.23
2018-08-16T01:08:58.134Z,18.18
2018-08-16T01:09:58.135Z,18.17
2018-08-16T01:10:58.126Z,18.23
2018-08-16T01:11:58.129Z,18.27
2018-08-16T01:12:58.137Z,18.27
2018-08-16T01:13:58.136Z,18.17
2018-08-16T01:14:58.148Z,18.21
2018-08-16T01:15:58.210Z,18.29
2018-08-16T01:16:58.159Z,18.29
2018-08-16T01:17:58.154Z,18.27
2018-08-16T01:18:58.154Z,18.17
2018-08-16T01:19:58.167Z,18.23
2018-08-16T01:20:58.161Z,18.25
2018-08-16T01:21:58.162Z,18.29
2018-08-16T01:22:58.161Z,18.23
2018-08-16T01:23:58.169Z,18.21
2018-08-16T01:24:58.161Z,18.21
2018-08-16T01:25:58.178Z,18.20
2018-08-16T01:26:58.186Z,18.27
2018-08-16T01:27:58.162Z,18.21
2018-08-16T01:28:58.199Z,18.29
2018-08-16T01:29:58.180Z,18.27
2018-08-16T01:30:58.190Z,18.25
2018-08-16T01:31:58.176Z,18.18
2018-08-16T01:32:58.185Z,18.12
2018-08-16T01:33:58.186Z,18.14
2018-08-16T01:34:58.223Z,18.14
2018-08-16T01:35:58.190Z,18.15
2018-08-16T01:36:58.191Z,18.14
2018-08-16T01:37:58.197Z,18.11
2018-08-16T01:38:59.146Z,18.07
2018-08-16T01:39:58.211Z,18.03
2018-08-16T01:40:58.208Z,18.05
2018-08-16T01:41:58.207Z,18.00
2018-08-16T01:42:58.206Z,17.95
2018-08-16T01:43:58.206Z,18.07
2018-08-16T01:44:58.218Z,18.00
2018-08-16T01:45:58.216Z,18.00
2018-08-16T01:46:58.222Z,18.03
2018-08-16T01:47:58.228Z,18.03
2018-08-16T01:48:58.228Z,17.99
2018-08-16T01:49:58.224Z,18.02
2018-08-16T01:50:58.229Z,18.05
2018-08-16T01:51:59.146Z,18.03
2018-08-16T01:52:58.237Z,17.97
2018-08-16T01:53:58.238Z,18.03
2018-08-16T01:54:58.246Z,17.90
2018-08-16T01:55:58.243Z,17.93
2018-08-16T01:56:58.243Z,17.97
2018-08-16T01:57:58.254Z,17.93
2018-08-16T01:58:58.250Z,18.02
2018-08-16T01:59:58.253Z,17.99
2018-08-16T02:00:58.255Z,17.92
2018-08-16T02:01:58.265Z,17.99
2018-08-16T02:02:58.261Z,17.95
2018-08-16T02:03:58.255Z,17.93
2018-08-16T02:04:58.262Z,17.84
2018-08-16T02:05:58.264Z,18.00
2018-08-16T02:06:58.268Z,17.95
2018-08-16T02:07:58.272Z,17.86
2018-08-16T02:08:58.275Z,17.90
2018-08-16T02:09:58.295Z,17.82
2018-08-16T02:10:58.298Z,17.90
2018-08-16T02:11:58.296Z,17.89
2018-08-16T02:12:58.282Z,17.87
2018-08-16T02:13:58.280Z,17.82
2018-08-16T02:14:58.285Z,17.95
2018-08-16T02:15:58.293Z,17.84
2018-08-16T02:16:58.291Z,17.90
2018-08-16T02:17:58.293Z,17.95
2018-08-16T02:18:58.295Z,17.86
2018-08-16T02:19:58.296Z,17.93
2018-08-16T02:20:58.298Z,17.86
2018-08-16T02:21:58.296Z,17.89
2018-08-16T02:22:58.331Z,18.00
2018-08-16T02:23:58.304Z,17.90
2018-08-16T02:24:58.312Z,17.95
2018-08-16T02:25:58.323Z,17.95
2018-08-16T02:26:58.314Z,17.93
2018-08-16T02:27:58.348Z,17.86
2018-08-16T02:28:58.321Z,17.89
2018-08-16T02:29:58.316Z,17.90
2018-08-16T02:30:58.322Z,17.93
2018-08-16T02:31:58.330Z,17.87
2018-08-16T02:32:58.371Z,17.87
2018-08-16T02:33:58.338Z,17.87
2018-08-16T02:34:58.324Z,17.93
2018-08-16T02:35:58.336Z,17.93
2018-08-16T02:36:58.329Z,17.92
2018-08-16T02:37:58.344Z,17.92
2018-08-16T02:38:58.342Z,17.89
2018-08-16T02:39:58.343Z,17.86
2018-08-16T02:40:58.344Z,17.89
2018-08-16T02:41:58.349Z,17.87
2018-08-16T02:42:58.350Z,17.87
2018-08-16T02:43:58.357Z,17.86
2018-08-16T02:44:58.359Z,17.78
2018-08-16T02:45:59.167Z,17.75
2018-08-16T02:46:58.366Z,17.86
2018-08-16T02:47:58.361Z,17.92
2018-08-16T02:48:58.368Z,17.77
2018-08-16T02:49:58.369Z,17.74
2018-08-16T02:50:58.538Z,17.78
2018-08-16T02:51:58.379Z,17.79
2018-08-16T02:52:58.378Z,17.86
2018-08-16T02:53:58.397Z,17.90
2018-08-16T02:54:58.399Z,17.86
2018-08-16T02:55:58.386Z,17.86
2018-08-16T02:56:58.388Z,17.84
2018-08-16T02:57:58.401Z,17.86
2018-08-16T02:58:58.391Z,17.84
2018-08-16T02:59:58.391Z,17.86
2018-08-16T03:00:58.387Z,17.82
2018-08-16T03:01:58.389Z,17.77
2018-08-16T03:02:58.397Z,17.72
2018-08-16T03:03:58.407Z,17.74
2018-08-16T03:04:58.416Z,17.75
2018-08-16T03:05:58.414Z,17.75
2018-08-16T03:06:58.407Z,17.78
2018-08-16T03:07:58.418Z,17.72
2018-08-16T03:08:58.421Z,17.75
2018-08-16T03:09:58.411Z,17.71
2018-08-16T03:10:58.414Z,17.74
2018-08-16T03:11:58.435Z,17.75
2018-08-16T03:12:58.429Z,17.71
2018-08-16T03:13:58.430Z,17.74
2018-08-16T03:14:58.425Z,17.82
2018-08-16T03:15:58.433Z,17.72
2018-08-16T03:16:59.179Z,17.72
2018-08-16T03:17:58.447Z,17.70
2018-08-16T03:18:58.435Z,17.77
2018-08-16T03:19:58.446Z,17.72
2018-08-16T03:20:58.452Z,17.75
2018-08-16T03:21:58.444Z,17.75
2018-08-16T03:22:58.449Z,17.75
2018-08-16T03:23:58.443Z,17.74
2018-08-16T03:24:58.441Z,17.66
2018-08-16T03:25:58.452Z,17.63
2018-08-16T03:26:58.468Z,17.77
2018-08-16T03:27:58.463Z,17.72
2018-08-16T03:28:58.458Z,17.71
2018-08-16T03:29:58.561Z,17.66
2018-08-16T03:30:58.466Z,17.63
2018-08-16T03:31:58.481Z,17.64
2018-08-16T03:32:58.471Z,17.66
2018-08-16T03:33:58.471Z,17.63
2018-08-16T03:34:58.469Z,17.64
2018-08-16T03:35:58.507Z,17.56
2018-08-16T03:36:58.472Z,17.68
2018-08-16T03:37:58.474Z,17.58
2018-08-16T03:38:58.483Z,17.64
2018-08-16T03:39:58.481Z,17.64
2018-08-16T03:40:58.490Z,17.68
2018-08-16T03:41:58.495Z,17.71
2018-08-16T03:42:58.487Z,17.70
2018-08-16T03:43:58.507Z,17.71
2018-08-16T03:44:58.512Z,17.68
2018-08-16T03:45:58.499Z,17.75
2018-08-16T03:46:58.507Z,17.74
2018-08-16T03:47:58.552Z,17.72
2018-08-16T03:48:58.495Z,17.71
2018-08-16T03:49:58.496Z,17.71
2018-08-16T03:50:58.526Z,17.72
2018-08-16T03:51:58.511Z,17.72
2018-08-16T03:52:58.514Z,17.71
2018-08-16T03:53:58.515Z,17.72
2018-08-16T03:54:58.523Z,17.72
2018-08-16T03:55:58.530Z,17.70
2018-08-16T03:56:58.530Z,17.75
2018-08-16T03:57:58.514Z,17.71
2018-08-16T03:58:58.525Z,17.72
2018-08-16T03:59:58.531Z,17.72
2018-08-16T04:00:58.535Z,17.72
2018-08-16T04:01:58.533Z,17.77
2018-08-16T04:02:58.537Z,17.72
2018-08-16T04:03:58.544Z,17.71
2018-08-16T04:04:58.547Z,17.79
2018-08-16T04:05:58.539Z,17.71
2018-08-16T04:06:58.541Z,17.74
2018-08-16T04:07:58.549Z,17.63
2018-08-16T04:08:58.552Z,17.70
2018-08-16T04:09:58.553Z,17.72
2018-08-16T04:10:58.551Z,17.66
2018-08-16T04:11:58.561Z,17.74
2018-08-16T04:12:58.560Z,17.70
2018-08-16T04:13:58.591Z,17.72
2018-08-16T04:14:58.560Z,17.74
2018-08-16T04:15:58.559Z,17.71
2018-08-16T04:16:58.568Z,17.72
2018-08-16T04:17:58.569Z,17.77
2018-08-16T04:18:58.578Z,17.72
2018-08-16T04:19:58.601Z,17.66
2018-08-16T04:20:58.583Z,17.59
2018-08-16T04:21:58.579Z,17.58
2018-08-16T04:22:58.579Z,17.64
2018-08-16T04:23:58.680Z,17.51
2018-08-16T04:24:58.593Z,17.59
2018-08-16T04:25:58.582Z,17.66
2018-08-16T04:26:58.603Z,17.66
2018-08-16T04:27:58.595Z,17.68
2018-08-16T04:28:58.632Z,17.72
2018-08-16T04:29:58.614Z,17.70
2018-08-16T04:30:58.599Z,17.71
2018-08-16T04:31:58.645Z,17.75
2018-08-16T04:32:58.600Z,17.70
2018-08-16T04:33:58.620Z,17.77
2018-08-16T04:34:58.615Z,17.70
2018-08-16T04:35:58.636Z,17.75
2018-08-16T04:36:58.607Z,17.72
2018-08-16T04:37:58.624Z,17.84
2018-08-16T04:38:58.613Z,17.72
2018-08-16T04:39:58.621Z,17.86
2018-08-16T04:40:58.621Z,17.84
2018-08-16T04:41:58.773Z,17.89
2018-08-16T04:42:58.680Z,17.90
2018-08-16T04:43:58.635Z,17.86
2018-08-16T04:44:58.656Z,17.96
2018-08-16T04:45:58.631Z,17.95
2018-08-16T04:46:58.634Z,18.02
2018-08-16T04:47:58.670Z,18.00
2018-08-16T04:48:58.640Z,18.02
2018-08-16T04:49:58.637Z,18.10
2018-08-16T04:50:58.650Z,18.20
2018-08-16T04:51:58.645Z,18.29
2018-08-16T04:52:58.657Z,18.25
2018-08-16T04:53:58.645Z,18.20
2018-08-16T04:54:58.703Z,18.35
2018-08-16T04:55:58.652Z,18.25
2018-08-16T04:56:58.773Z,18.33
2018-08-16T04:57:58.656Z,18.32
2018-08-16T04:58:58.669Z,18.44
2018-08-16T04:59:58.693Z,18.45
2018-08-16T05:00:58.672Z,18.44
2018-08-16T05:01:58.675Z,18.42
2018-08-16T05:02:58.676Z,18.44
2018-08-16T05:03:58.667Z,18.48
2018-08-16T05:04:58.671Z,18.48
2018-08-16T05:05:58.688Z,18.52
2018-08-16T05:06:58.684Z,18.52
2018-08-16T05:07:58.719Z,18.55
2018-08-16T05:08:58.677Z,18.54
2018-08-16T05:09:58.721Z,18.66
2018-08-16T05:10:58.710Z,18.69
2018-08-16T05:11:58.689Z,18.70
2018-08-16T05:12:58.691Z,18.80
2018-08-16T05:13:58.697Z,18.94
2018-08-16T05:14:58.706Z,18.99
2018-08-16T05:15:58.710Z,19.02
2018-08-16T05:16:58.702Z,19.02
2018-08-16T05:17:58.701Z,19.02
2018-08-16T05:18:58.706Z,19.21
2018-08-16T05:19:58.699Z,19.25
2018-08-16T05:20:58.715Z,19.31
2018-08-16T05:21:58.716Z,19.43
2018-08-16T05:22:58.719Z,19.46
2018-08-16T05:23:58.749Z,19.56
2018-08-16T05:24:58.718Z,19.59
2018-08-16T05:25:58.734Z,19.69
2018-08-16T05:26:58.739Z,19.63
2018-08-16T05:27:58.763Z,19.77
2018-08-16T05:28:58.730Z,19.81
2018-08-16T05:29:58.732Z,19.92
2018-08-16T05:30:58.745Z,20.24
2018-08-16T05:31:59.852Z,20.76
2018-08-16T05:32:58.743Z,20.85
2018-08-16T05:33:58.745Z,20.88
2018-08-16T05:34:58.739Z,20.87
2018-08-16T05:35:58.799Z,20.99
2018-08-16T05:36:58.748Z,20.97
2018-08-16T05:37:58.751Z,21.40
2018-08-16T05:38:58.767Z,22.06
2018-08-16T05:39:58.761Z,22.45
2018-08-16T05:40:58.763Z,23.01
2018-08-16T05:41:58.761Z,23.13
2018-08-16T05:42:58.800Z,23.68
2018-08-16T05:43:58.767Z,24.03
2018-08-16T05:44:58.783Z,24.22
2018-08-16T05:45:58.774Z,24.34
2018-08-16T05:46:58.791Z,24.45
2018-08-16T05:47:58.784Z,24.53
2018-08-16T05:48:58.864Z,24.62
2018-08-16T05:49:58.796Z,24.98
2018-08-16T05:50:59.004Z,24.85
2018-08-16T05:51:58.832Z,24.45
2018-08-16T05:52:58.791Z,24.31
2018-08-16T05:53:58.809Z,24.31
2018-08-16T05:54:58.804Z,24.42
2018-08-16T05:55:58.807Z,24.45
2018-08-16T05:56:58.810Z,24.62
2018-08-16T05:57:58.817Z,24.84
2018-08-16T05:58:58.813Z,25.05
2018-08-16T05:59:58.837Z,25.46
2018-08-16T06:00:58.846Z,25.51
2018-08-16T06:01:58.841Z,25.57
2018-08-16T06:02:58.826Z,25.54
2018-08-16T06:03:58.852Z,25.58
2018-08-16T06:04:58.861Z,25.77
2018-08-16T06:05:58.841Z,25.65
2018-08-16T06:06:58.934Z,25.57
2018-08-16T06:07:58.847Z,25.75
2018-08-16T06:08:58.859Z,25.92
2018-08-16T06:09:58.865Z,25.97
2018-08-16T06:10:58.887Z,26.32
2018-08-16T06:11:58.872Z,26.54
2018-08-16T06:12:58.969Z,26.47
2018-08-16T06:13:58.890Z,26.89
2018-08-16T06:14:58.892Z,26.26
2018-08-16T06:15:58.897Z,26.55
2018-08-16T06:16:58.906Z,26.37
2018-08-16T06:17:58.906Z,26.50
2018-08-16T06:18:58.915Z,26.62
2018-08-16T06:19:58.959Z,26.60
2018-08-16T06:20:58.923Z,26.54
2018-08-16T06:21:58.924Z,26.88
2018-08-16T06:22:58.929Z,27.22
2018-08-16T06:23:58.960Z,27.14
2018-08-16T06:24:58.947Z,26.51
2018-08-16T06:25:58.954Z,26.52
2018-08-16T06:26:58.952Z,26.32
2018-08-16T06:27:58.990Z,26.07
2018-08-16T06:28:58.964Z,25.73
2018-08-16T06:29:59.772Z,25.45
2018-08-16T06:30:59.050Z,25.94
2018-08-16T06:31:58.986Z,26.29
2018-08-16T06:32:58.999Z,26.29
2018-08-16T06:33:59.001Z,26.40
2018-08-16T06:34:58.998Z,26.47
2018-08-16T06:35:59.007Z,26.55
2018-08-16T06:36:59.015Z,27.06
2018-08-16T06:37:59.019Z,26.82
2018-08-16T06:38:59.098Z,26.47
2018-08-16T06:39:59.040Z,26.06
2018-08-16T06:40:59.044Z,25.33
2018-08-16T06:41:59.070Z,24.81
2018-08-16T06:42:59.053Z,24.05
2018-08-16T06:43:59.070Z,23.66
2018-08-16T06:44:59.064Z,23.69
2018-08-16T06:45:59.078Z,23.39
2018-08-16T06:46:59.088Z,23.01
2018-08-16T06:47:59.084Z,22.90
2018-08-16T06:48:59.092Z,22.70
2018-08-16T06:49:59.102Z,22.43
2018-08-16T06:50:59.112Z,22.76
2018-08-16T06:51:59.120Z,23.07
2018-08-16T06:52:59.130Z,23.50
2018-08-16T06:53:59.131Z,23.60
2018-08-16T06:54:59.167Z,23.78
2018-08-16T06:55:59.154Z,24.15
2018-08-16T06:56:59.157Z,24.55
2018-08-16T06:57:59.779Z,24.65
2018-08-16T06:58:59.166Z,24.93
2018-08-16T06:59:59.167Z,25.27
2018-08-16T07:00:59.246Z,25.58
2018-08-16T07:01:59.197Z,26.09
2018-08-16T07:02:59.191Z,26.63
2018-08-16T07:03:59.198Z,27.13
2018-08-16T07:04:59.275Z,27.69
2018-08-16T07:05:59.207Z,28.15
2018-08-16T07:06:59.219Z,28.80
2018-08-16T07:07:59.225Z,29.30
2018-08-16T07:08:59.215Z,29.58
2018-08-16T07:09:59.255Z,29.12
2018-08-16T07:10:59.364Z,29.34
2018-08-16T07:11:59.316Z,29.79
2018-08-16T07:12:59.252Z,29.65
2018-08-16T07:13:59.266Z,29.76
2018-08-16T07:14:59.297Z,29.61
2018-08-16T07:15:59.296Z,30.04
2018-08-16T07:16:59.287Z,29.80
2018-08-16T07:17:59.332Z,29.60
2018-08-16T07:18:59.306Z,29.89
2018-08-16T07:19:59.309Z,29.60
2018-08-16T07:20:59.327Z,29.23
2018-08-16T07:21:59.339Z,29.43
2018-08-16T07:22:59.349Z,29.57
2018-08-16T07:23:59.360Z,29.41
2018-08-16T07:24:59.357Z,29.89
2018-08-16T07:25:59.374Z,29.63
2018-08-16T07:26:59.383Z,29.87
2018-08-16T07:27:59.408Z,30.05
2018-08-16T07:28:59.421Z,29.30
2018-08-16T07:29:59.498Z,29.53
2018-08-16T07:30:59.412Z,29.24
2018-08-16T07:31:59.458Z,29.53
2018-08-16T07:32:59.456Z,30.29
2018-08-16T07:34:00.304Z,30.49
2018-08-16T07:34:59.477Z,30.13
2018-08-16T07:35:59.481Z,29.82
2018-08-16T07:36:59.478Z,30.20
2018-08-16T07:37:59.488Z,29.28
2018-08-16T07:39:00.301Z,30.17
2018-08-16T07:39:59.521Z,30.05
2018-08-16T07:40:59.517Z,30.23
2018-08-16T07:41:59.573Z,30.16
2018-08-16T07:42:59.563Z,30.15
2018-08-16T07:43:59.556Z,30.19
2018-08-16T07:44:59.566Z,30.26
2018-08-16T07:45:59.667Z,29.51
2018-08-16T07:46:59.644Z,29.78
2018-08-16T07:48:01.306Z,30.58
2018-08-16T07:48:59.755Z,30.84
2018-08-16T07:49:59.635Z,30.69
2018-08-16T07:50:59.705Z,30.84
2018-08-16T07:51:59.764Z,31.28
2018-08-16T07:52:59.705Z,31.38
2018-08-16T07:53:59.691Z,31.44
2018-08-16T07:54:59.697Z,31.31
2018-08-16T07:55:59.730Z,30.67
2018-08-16T07:56:59.807Z,30.69
2018-08-16T07:57:59.730Z,31.10
2018-08-16T07:58:59.742Z,31.35
2018-08-16T07:59:59.747Z,30.99
2018-08-16T08:00:59.785Z,30.61
2018-08-16T08:01:59.933Z,30.83
2018-08-16T08:02:59.796Z,31.39
2018-08-16T08:03:59.805Z,31.63
2018-08-16T08:04:59.833Z,32.00
2018-08-16T08:05:59.823Z,32.23
2018-08-16T08:06:59.996Z,32.29
2018-08-16T08:07:59.848Z,32.26
2018-08-16T08:09:00.075Z,32.44
2018-08-16T08:09:59.885Z,32.81
2018-08-16T08:10:59.927Z,32.19
2018-08-16T08:11:59.974Z,32.65
2018-08-16T08:12:59.970Z,32.67
2018-08-16T08:13:59.987Z,32.40
2018-08-16T08:14:59.945Z,32.03
2018-08-16T08:15:59.956Z,32.57
2018-08-16T08:16:59.983Z,32.96
2018-08-16T08:17:59.985Z,33.06
2018-08-16T08:19:00.833Z,32.28
2018-08-16T08:20:00.036Z,31.31
2018-08-16T08:21:00.148Z,30.57
2018-08-16T08:22:00.044Z,30.51
2018-08-16T08:23:00.055Z,30.89
2018-08-16T08:24:00.095Z,30.82
2018-08-16T08:25:00.088Z,31.09
2018-08-16T08:26:00.122Z,31.23
2018-08-16T08:27:00.144Z,31.68
2018-08-16T08:28:00.844Z,31.21
2018-08-16T08:29:00.279Z,30.84
2018-08-16T08:30:00.184Z,30.83
2018-08-16T08:31:00.180Z,30.60
2018-08-16T08:32:00.199Z,29.21
2018-08-16T08:33:00.210Z,29.14
2018-08-16T08:34:00.297Z,28.68
2018-08-16T08:35:00.281Z,28.76
2018-08-16T08:36:00.244Z,28.76
2018-08-16T08:37:00.256Z,29.49
2018-08-16T08:38:00.277Z,30.64
2018-08-16T08:39:00.432Z,31.26
2018-08-16T08:40:00.320Z,31.32
2018-08-16T08:41:00.340Z,31.14
2018-08-16T08:42:00.351Z,30.82
2018-08-16T08:43:00.376Z,30.04
2018-08-16T08:44:00.373Z,28.74
2018-08-16T08:45:00.413Z,27.96
2018-08-16T08:46:00.421Z,29.16
2018-08-16T08:47:01.349Z,29.24
2018-08-16T08:48:00.556Z,28.89
2018-08-16T08:49:00.475Z,29.68
2018-08-16T08:50:00.459Z,29.55
2018-08-16T08:51:00.488Z,28.68
2018-08-16T08:52:00.478Z,28.17
2018-08-16T08:53:00.512Z,27.84
2018-08-16T08:54:00.523Z,28.86
2018-08-16T08:55:03.469Z,29.37
2018-08-16T08:56:00.581Z,27.59
2018-08-16T08:57:01.357Z,27.43
2018-08-16T08:58:00.565Z,26.99
2018-08-16T08:59:00.573Z,27.47
2018-08-16T09:00:00.586Z,27.99
2018-08-16T09:01:00.626Z,28.06
2018-08-16T09:02:00.636Z,27.65
2018-08-16T09:03:00.615Z,28.21
2018-08-16T09:04:00.664Z,28.93
2018-08-16T09:05:00.697Z,28.92
2018-08-16T09:06:00.667Z,29.39
2018-08-16T09:07:01.364Z,30.00
2018-08-16T09:08:00.686Z,30.54
2018-08-16T09:09:00.725Z,31.04
2018-08-16T09:10:00.719Z,31.21
2018-08-16T09:11:00.730Z,31.16
2018-08-16T09:12:01.367Z,31.48
2018-08-16T09:13:00.758Z,31.06
2018-08-16T09:14:00.777Z,31.53
2018-08-16T09:15:00.780Z,31.50
2018-08-16T09:16:00.840Z,31.01
2018-08-16T09:17:00.839Z,31.28
2018-08-16T09:18:00.835Z,31.61
2018-08-16T09:19:00.857Z,31.20
2018-08-16T09:20:00.877Z,31.17
2018-08-16T09:21:00.871Z,30.86
2018-08-16T09:22:00.995Z,30.76
2018-08-16T09:23:00.909Z,29.83
2018-08-16T09:24:00.981Z,29.37
2018-08-16T09:25:00.936Z,29.53
2018-08-16T09:26:00.945Z,29.55
2018-08-16T09:27:00.978Z,30.22
2018-08-16T09:28:00.980Z,30.29
2018-08-16T09:29:00.995Z,31.19
2018-08-16T09:30:01.015Z,31.95
2018-08-16T09:31:01.113Z,32.13
2018-08-16T09:32:01.887Z,30.82
2018-08-16T09:33:01.094Z,29.02
2018-08-16T09:34:01.064Z,28.86
2018-08-16T09:35:01.123Z,30.01
2018-08-16T09:36:01.101Z,31.20
2018-08-16T09:37:01.127Z,32.19
2018-08-16T09:38:01.127Z,31.86
2018-08-16T09:39:01.138Z,30.55
2018-08-16T09:40:01.169Z,29.60
2018-08-16T09:41:01.163Z,30.42
2018-08-16T09:42:01.214Z,31.13
2018-08-16T09:43:01.199Z,31.13
2018-08-16T09:44:01.264Z,31.36
2018-08-16T09:45:01.295Z,32.14
2018-08-16T09:46:01.254Z,31.53
2018-08-16T09:47:01.266Z,31.44
2018-08-16T09:48:01.275Z,31.23
2018-08-16T09:49:01.300Z,31.20
2018-08-16T09:50:01.349Z,31.91
2018-08-16T09:51:01.320Z,31.61
2018-08-16T09:52:01.338Z,30.91
2018-08-16T09:53:01.363Z,30.64
2018-08-16T09:54:01.372Z,30.79
2018-08-16T09:55:01.402Z,30.80
2018-08-16T09:56:01.424Z,31.21
2018-08-16T09:57:01.430Z,30.91
2018-08-16T09:58:01.457Z,31.29
2018-08-16T09:59:01.475Z,31.61
2018-08-16T10:00:01.489Z,31.41
2018-08-16T10:01:01.519Z,31.70
2018-08-16T10:02:01.582Z,32.43
2018-08-16T10:03:01.540Z,32.97
2018-08-16T10:04:01.572Z,32.82
2018-08-16T10:05:01.569Z,31.50
2018-08-16T10:06:01.584Z,31.92
2018-08-16T10:07:01.609Z,31.65
2018-08-16T10:08:01.618Z,32.47
2018-08-16T10:09:01.662Z,32.87
2018-08-16T10:10:01.721Z,32.65
2018-08-16T10:11:01.740Z,32.35
2018-08-16T10:12:01.795Z,31.66
2018-08-16T10:13:01.782Z,31.35
2018-08-16T10:14:01.761Z,31.85
2018-08-16T10:15:01.837Z,32.30
2018-08-16T10:18:41.921Z,31.75
2018-08-16T10:19:34.145Z,31.56
2018-08-16T10:20:35.872Z,31.99
2018-08-16T10:22:34.213Z,31.48
2018-08-16T10:23:34.284Z,31.50
2018-08-16T10:24:34.238Z,32.10
2018-08-16T10:25:34.259Z,31.96
2018-08-16T10:26:34.343Z,31.66
2018-08-16T10:27:34.341Z,31.44
2018-08-16T10:28:34.546Z,32.32
2018-08-16T10:29:34.318Z,32.50
2018-08-16T10:30:34.393Z,32.51
2018-08-16T10:31:34.403Z,32.87
2018-08-16T10:32:34.466Z,32.25
2018-08-16T10:33:34.433Z,31.21
2018-08-16T10:34:34.495Z,31.72
2018-08-16T10:35:34.495Z,31.99
2018-08-16T10:36:34.450Z,31.61
2018-08-16T10:37:34.491Z,31.81
2018-08-16T10:38:34.601Z,31.96
2018-08-16T10:39:34.548Z,32.22
2018-08-16T10:40:34.528Z,32.14
2018-08-16T10:41:34.652Z,31.54
2018-08-16T10:42:34.640Z,31.78
2018-08-16T10:43:34.730Z,31.85
2018-08-16T10:44:34.631Z,31.96
2018-08-16T10:45:34.616Z,32.47
2018-08-16T10:46:34.691Z,31.95
2018-08-16T10:47:34.689Z,31.69
2018-08-16T10:48:34.704Z,31.85
2018-08-16T10:49:34.739Z,32.57
2018-08-16T10:50:34.765Z,32.23
2018-08-16T10:51:34.778Z,32.48
2018-08-16T10:52:34.823Z,32.00
2018-08-16T10:53:34.830Z,31.66
2018-08-16T10:54:34.857Z,31.65
2018-08-16T10:55:34.871Z,31.72
2018-08-16T10:56:34.944Z,31.36
2018-08-16T10:57:34.910Z,31.56
2018-08-16T10:58:35.010Z,31.48
2018-08-16T10:59:34.957Z,31.41
2018-08-16T11:00:34.911Z,31.46
2018-08-16T11:01:34.965Z,31.85
2018-08-16T11:02:34.995Z,32.01
2018-08-16T11:03:34.986Z,31.70
2018-08-16T11:04:35.029Z,32.04
2018-08-16T11:05:35.049Z,31.46
2018-08-16T11:06:35.149Z,31.26
2018-08-16T11:07:35.152Z,30.79
2018-08-16T11:08:35.130Z,30.84
2018-08-16T11:09:35.133Z,31.10
2018-08-16T11:10:35.141Z,30.92
2018-08-16T11:11:35.199Z,30.86
2018-08-16T11:12:35.158Z,30.00
2018-08-16T11:13:35.182Z,29.57
2018-08-16T11:14:35.347Z,29.52
2018-08-16T11:15:35.154Z,29.05
2018-08-16T11:16:35.192Z,29.21
2018-08-16T11:17:35.226Z,29.21
2018-08-16T11:18:35.232Z,29.30
2018-08-16T11:19:35.241Z,29.43
2018-08-16T11:20:35.336Z,29.27
2018-08-16T11:21:35.284Z,29.53
2018-08-16T11:22:35.346Z,29.76
2018-08-16T11:23:35.334Z,29.90
2018-08-16T11:24:35.552Z,29.90
2018-08-16T11:25:35.419Z,29.52
2018-08-16T11:26:35.362Z,29.55
2018-08-16T11:27:35.360Z,29.57
2018-08-16T11:28:35.382Z,29.58
2018-08-16T11:29:35.419Z,29.55
2018-08-16T11:30:35.364Z,29.79
2018-08-16T11:31:35.418Z,29.71
2018-08-16T11:32:35.454Z,29.67
2018-08-16T11:33:35.674Z,29.63
2018-08-16T11:34:35.553Z,29.57
2018-08-16T11:35:35.459Z,29.52
2018-08-16T11:36:35.470Z,29.23
2018-08-16T11:37:35.930Z,29.43
2018-08-16T11:38:36.190Z,29.05
2018-08-16T11:39:35.519Z,28.93
2018-08-16T11:40:35.577Z,29.30
2018-08-16T11:41:35.856Z,29.46
2018-08-16T11:42:35.547Z,29.30
2018-08-16T11:43:35.547Z,29.26
2018-08-16T11:44:35.550Z,29.39
2018-08-16T11:45:35.581Z,29.51
2018-08-16T11:46:35.636Z,29.14
2018-08-16T11:47:35.624Z,29.23
2018-08-16T11:48:35.584Z,29.30
2018-08-16T11:49:35.603Z,29.26
2018-08-16T11:50:35.573Z,29.21
2018-08-16T11:51:35.586Z,28.95
2018-08-16T11:52:35.626Z,29.18
2018-08-16T11:53:35.650Z,29.19
2018-08-16T11:54:35.628Z,29.06
2018-08-16T11:55:35.660Z,29.33
2018-08-16T11:56:38.765Z,29.51
2018-08-16T11:57:35.731Z,29.53
2018-08-16T11:58:36.723Z,29.19
2018-08-16T11:59:35.738Z,29.23
2018-08-16T12:00:35.653Z,29.49
2018-08-16T12:01:35.790Z,29.28
2018-08-16T12:02:35.854Z,29.45
2018-08-16T12:03:36.374Z,29.60
2018-08-16T12:04:38.643Z,29.68
2018-08-16T12:05:35.770Z,29.63
2018-08-16T12:06:35.765Z,29.63
2018-08-16T12:07:36.445Z,29.76
2018-08-16T12:08:35.734Z,29.61
2018-08-16T12:09:35.805Z,29.61
2018-08-16T12:10:36.450Z,29.67
2018-08-16T12:11:35.839Z,29.57
2018-08-16T12:12:35.824Z,29.70
2018-08-16T12:13:37.527Z,29.71
2018-08-16T12:14:36.011Z,29.83
2018-08-16T12:15:35.895Z,29.85
2018-08-16T12:16:35.889Z,29.90
2018-08-16T12:17:35.908Z,29.53
2018-08-16T12:18:35.876Z,29.02
2018-08-16T12:19:35.907Z,29.15
2018-08-16T12:20:35.924Z,29.45
2018-08-16T12:21:36.082Z,29.61
2018-08-16T12:22:36.455Z,29.57
2018-08-16T12:23:35.941Z,29.55
2018-08-16T12:24:35.894Z,29.60
2018-08-16T12:25:35.905Z,29.60
2018-08-16T12:26:36.011Z,29.21
2018-08-16T12:27:36.184Z,29.33
2018-08-16T12:28:35.981Z,29.42
2018-08-16T12:29:37.017Z,29.57
2018-08-16T12:30:36.460Z,29.73
2018-08-16T12:31:36.141Z,29.55
2018-08-16T12:32:37.100Z,29.52
2018-08-16T12:33:36.210Z,29.53
2018-08-16T12:36:09.180Z,29.39
2018-08-16T12:37:09.203Z,29.43
2018-08-16T12:38:09.226Z,29.53
2018-08-16T12:39:09.645Z,29.28
2018-08-16T12:40:09.233Z,29.23
2018-08-16T12:41:10.133Z,29.00
2018-08-16T12:42:09.371Z,29.05
2018-08-16T12:43:09.247Z,29.16
2018-08-16T12:44:09.214Z,28.96
2018-08-16T12:45:09.247Z,28.93
2018-08-16T12:46:09.269Z,28.95
2018-08-16T12:47:09.258Z,29.06
2018-08-16T12:48:09.259Z,29.30
2018-08-16T12:49:09.243Z,29.18
2018-08-16T12:50:09.263Z,29.11
2018-08-16T12:51:09.440Z,29.05
2018-08-16T12:52:09.302Z,29.09
2018-08-16T12:53:09.292Z,29.21
2018-08-16T12:54:10.102Z,29.02
2018-08-16T12:55:09.298Z,29.15
2018-08-16T12:56:09.362Z,29.19
2018-08-16T12:57:09.313Z,29.12
2018-08-16T12:58:09.318Z,29.08